sensor_id;sensor_type;location;lat;lon;timestamp;P1;durP1;ratioP1;P2;durP2;ratioP2
63434;SDS011;68814;50.872;5.306;2023-04-03T00:00:41;12.90;;;6.53;;
63434;SDS011;68814;50.872;5.306;2023-04-03T00:03:06;15.90;;;7.43;;
63434;SDS011;68814;50.872;5.306;2023-04-03T00:05:32;11.90;;;7.35;;
63434;SDS011;68814;50.872;5.306;2023-04-03T00:14:42;11.32;;;7.95;;
63434;SDS011;68814;50.872;5.306;2023-04-03T00:17:08;9.70;;;7.50;;
63434;SDS011;68814;50.872;5.306;2023-04-03T00:19:34;10.68;;;7.18;;
63434;SDS011;68814;50.872;5.306;2023-04-03T00:22:00;12.52;;;7.30;;
63434;SDS011;68814;50.872;5.306;2023-04-03T00:24:25;13.10;;;7.88;;
63434;SDS011;68814;50.872;5.306;2023-04-03T00:26:51;16.63;;;8.02;;
63434;SDS011;68814;50.872;5.306;2023-04-03T00:39:50;13.00;;;7.75;;
63434;SDS011;68814;50.872;5.306;2023-04-03T00:42:16;16.10;;;8.77;;
63434;SDS011;68814;50.872;5.306;2023-04-03T00:47:11;14.27;;;8.55;;
63434;SDS011;68814;50.872;5.306;2023-04-03T00:49:57;17.55;;;9.27;;
63434;SDS011;68814;50.872;5.306;2023-04-03T00:52:24;14.18;;;9.43;;
63434;SDS011;68814;50.872;5.306;2023-04-03T00:54:54;14.95;;;8.75;;
63434;SDS011;68814;50.872;5.306;2023-04-03T00:57:22;13.50;;;8.52;;
63434;SDS011;68814;50.872;5.306;2023-04-03T00:59:51;14.02;;;8.73;;
63434;SDS011;68814;50.872;5.306;2023-04-03T01:02:22;13.73;;;8.68;;
63434;SDS011;68814;50.872;5.306;2023-04-03T01:04:48;13.15;;;8.45;;
63434;SDS011;68814;50.872;5.306;2023-04-03T01:09:55;15.10;;;8.98;;
63434;SDS011;68814;50.872;5.306;2023-04-03T01:22:43;12.18;;;7.85;;
63434;SDS011;68814;50.872;5.306;2023-04-03T01:25:21;14.05;;;8.32;;
63434;SDS011;68814;50.872;5.306;2023-04-03T01:27:47;14.82;;;7.97;;
63434;SDS011;68814;50.872;5.306;2023-04-03T01:30:13;15.13;;;8.27;;
63434;SDS011;68814;50.872;5.306;2023-04-03T01:39:26;17.75;;;8.65;;
63434;SDS011;68814;50.872;5.306;2023-04-03T01:41:52;13.07;;;8.60;;
63434;SDS011;68814;50.872;5.306;2023-04-03T01:44:18;14.30;;;8.50;;
63434;SDS011;68814;50.872;5.306;2023-04-03T01:46:43;14.85;;;9.43;;
63434;SDS011;68814;50.872;5.306;2023-04-03T01:49:09;15.35;;;9.18;;
63434;SDS011;68814;50.872;5.306;2023-04-03T01:54:57;16.20;;;8.63;;
63434;SDS011;68814;50.872;5.306;2023-04-03T01:57:23;14.60;;;8.93;;
63434;SDS011;68814;50.872;5.306;2023-04-03T01:59:48;14.77;;;8.63;;
63434;SDS011;68814;50.872;5.306;2023-04-03T02:02:14;15.30;;;9.35;;
63434;SDS011;68814;50.872;5.306;2023-04-03T02:04:40;13.48;;;8.30;;
63434;SDS011;68814;50.872;5.306;2023-04-03T02:20:40;18.80;;;9.05;;
63434;SDS011;68814;50.872;5.306;2023-04-03T02:23:06;15.35;;;8.68;;
63434;SDS011;68814;50.872;5.306;2023-04-03T02:25:32;13.75;;;9.18;;
63434;SDS011;68814;50.872;5.306;2023-04-03T02:27:58;15.65;;;9.00;;
63434;SDS011;68814;50.872;5.306;2023-04-03T02:30:24;14.23;;;9.30;;
63434;SDS011;68814;50.872;5.306;2023-04-03T02:32:50;21.42;;;9.48;;
63434;SDS011;68814;50.872;5.306;2023-04-03T02:53:41;14.43;;;9.48;;
63434;SDS011;68814;50.872;5.306;2023-04-03T02:56:07;17.50;;;10.55;;
63434;SDS011;68814;50.872;5.306;2023-04-03T02:58:32;17.10;;;9.52;;
63434;SDS011;68814;50.872;5.306;2023-04-03T03:00:58;17.42;;;10.00;;
63434;SDS011;68814;50.872;5.306;2023-04-03T03:03:24;16.08;;;10.57;;
63434;SDS011;68814;50.872;5.306;2023-04-03T03:05:50;16.55;;;9.65;;
63434;SDS011;68814;50.872;5.306;2023-04-03T03:08:26;15.65;;;10.18;;
63434;SDS011;68814;50.872;5.306;2023-04-03T03:10:51;17.52;;;10.82;;
63434;SDS011;68814;50.872;5.306;2023-04-03T03:13:17;22.90;;;10.13;;
63434;SDS011;68814;50.872;5.306;2023-04-03T03:15:43;20.35;;;9.90;;
63434;SDS011;68814;50.872;5.306;2023-04-03T03:18:27;20.63;;;10.35;;
63434;SDS011;68814;50.872;5.306;2023-04-03T03:20:53;15.80;;;9.27;;
63434;SDS011;68814;50.872;5.306;2023-04-03T03:23:20;22.60;;;12.07;;
63434;SDS011;68814;50.872;5.306;2023-04-03T03:25:47;21.88;;;11.88;;
63434;SDS011;68814;50.872;5.306;2023-04-03T03:28:12;23.13;;;12.05;;
63434;SDS011;68814;50.872;5.306;2023-04-03T03:30:38;17.90;;;10.75;;
63434;SDS011;68814;50.872;5.306;2023-04-03T03:33:04;15.15;;;9.85;;
63434;SDS011;68814;50.872;5.306;2023-04-03T03:38:52;18.17;;;9.85;;
63434;SDS011;68814;50.872;5.306;2023-04-03T03:41:17;17.83;;;10.20;;
63434;SDS011;68814;50.872;5.306;2023-04-03T03:43:43;20.33;;;10.68;;
63434;SDS011;68814;50.872;5.306;2023-04-03T03:46:09;22.33;;;11.77;;
63434;SDS011;68814;50.872;5.306;2023-04-03T03:51:56;15.70;;;9.52;;
63434;SDS011;68814;50.872;5.306;2023-04-03T03:54:22;18.95;;;11.40;;
63434;SDS011;68814;50.872;5.306;2023-04-03T03:56:47;15.07;;;9.52;;
63434;SDS011;68814;50.872;5.306;2023-04-03T03:59:13;18.77;;;10.73;;
63434;SDS011;68814;50.872;5.306;2023-04-03T04:11:45;15.27;;;9.65;;
63434;SDS011;68814;50.872;5.306;2023-04-03T04:14:10;20.38;;;10.00;;
63434;SDS011;68814;50.872;5.306;2023-04-03T04:16:38;17.63;;;10.68;;
63434;SDS011;68814;50.872;5.306;2023-04-03T04:19:04;21.90;;;12.52;;
63434;SDS011;68814;50.872;5.306;2023-04-03T04:28:14;21.23;;;10.98;;
63434;SDS011;68814;50.872;5.306;2023-04-03T04:30:40;19.20;;;10.85;;
63434;SDS011;68814;50.872;5.306;2023-04-03T04:33:05;17.15;;;10.50;;
63434;SDS011;68814;50.872;5.306;2023-04-03T04:35:32;15.45;;;9.35;;
63434;SDS011;68814;50.872;5.306;2023-04-03T04:37:58;16.60;;;10.55;;
63434;SDS011;68814;50.872;5.306;2023-04-03T04:40:23;18.55;;;10.95;;
63434;SDS011;68814;50.872;5.306;2023-04-03T04:45:35;16.95;;;10.20;;
63434;SDS011;68814;50.872;5.306;2023-04-03T04:48:01;15.88;;;9.52;;
63434;SDS011;68814;50.872;5.306;2023-04-03T04:50:26;17.05;;;9.63;;
63434;SDS011;68814;50.872;5.306;2023-04-03T04:52:52;19.00;;;10.02;;
63434;SDS011;68814;50.872;5.306;2023-04-03T04:58:48;18.35;;;9.98;;
63434;SDS011;68814;50.872;5.306;2023-04-03T05:01:14;21.83;;;10.63;;
63434;SDS011;68814;50.872;5.306;2023-04-03T05:03:40;18.30;;;9.93;;
63434;SDS011;68814;50.872;5.306;2023-04-03T05:06:05;18.60;;;10.13;;
63434;SDS011;68814;50.872;5.306;2023-04-03T05:08:31;18.80;;;10.43;;
63434;SDS011;68814;50.872;5.306;2023-04-03T05:10:57;19.63;;;9.82;;
63434;SDS011;68814;50.872;5.306;2023-04-03T05:16:45;17.80;;;10.05;;
63434;SDS011;68814;50.872;5.306;2023-04-03T05:19:11;18.65;;;10.35;;
63434;SDS011;68814;50.872;5.306;2023-04-03T05:21:37;17.38;;;10.10;;
63434;SDS011;68814;50.872;5.306;2023-04-03T05:24:02;25.27;;;11.57;;
63434;SDS011;68814;50.872;5.306;2023-04-03T05:26:29;20.05;;;11.20;;
63434;SDS011;68814;50.872;5.306;2023-04-03T05:28:57;23.73;;;11.07;;
63434;SDS011;68814;50.872;5.306;2023-04-03T05:31:23;22.13;;;11.35;;
63434;SDS011;68814;50.872;5.306;2023-04-03T05:37:14;19.95;;;12.32;;
63434;SDS011;68814;50.872;5.306;2023-04-03T05:39:40;20.05;;;12.07;;
63434;SDS011;68814;50.872;5.306;2023-04-03T05:42:06;20.33;;;11.70;;
63434;SDS011;68814;50.872;5.306;2023-04-03T05:44:32;23.75;;;11.90;;
63434;SDS011;68814;50.872;5.306;2023-04-03T05:46:58;21.88;;;12.65;;
63434;SDS011;68814;50.872;5.306;2023-04-03T05:49:24;18.42;;;11.20;;
63434;SDS011;68814;50.872;5.306;2023-04-03T05:51:50;18.17;;;11.20;;
63434;SDS011;68814;50.872;5.306;2023-04-03T05:54:24;17.38;;;11.18;;
63434;SDS011;68814;50.872;5.306;2023-04-03T05:56:51;20.35;;;12.80;;
63434;SDS011;68814;50.872;5.306;2023-04-03T05:59:17;19.50;;;11.77;;
63434;SDS011;68814;50.872;5.306;2023-04-03T06:01:43;28.05;;;13.05;;
63434;SDS011;68814;50.872;5.306;2023-04-03T06:04:09;23.13;;;13.93;;
63434;SDS011;68814;50.872;5.306;2023-04-03T06:06:54;27.60;;;14.48;;
63434;SDS011;68814;50.872;5.306;2023-04-03T06:16:06;24.20;;;15.23;;
63434;SDS011;68814;50.872;5.306;2023-04-03T06:18:34;29.52;;;16.50;;
63434;SDS011;68814;50.872;5.306;2023-04-03T06:21:00;33.20;;;18.15;;
63434;SDS011;68814;50.872;5.306;2023-04-03T06:23:27;30.05;;;18.60;;
63434;SDS011;68814;50.872;5.306;2023-04-03T06:25:53;27.77;;;17.70;;
63434;SDS011;68814;50.872;5.306;2023-04-03T06:28:19;30.45;;;19.15;;
63434;SDS011;68814;50.872;5.306;2023-04-03T06:30:45;28.40;;;18.33;;
63434;SDS011;68814;50.872;5.306;2023-04-03T06:33:10;32.45;;;18.52;;
63434;SDS011;68814;50.872;5.306;2023-04-03T06:35:36;34.90;;;18.42;;
63434;SDS011;68814;50.872;5.306;2023-04-03T06:55:03;28.35;;;15.68;;
63434;SDS011;68814;50.872;5.306;2023-04-03T06:57:29;24.27;;;15.73;;
63434;SDS011;68814;50.872;5.306;2023-04-03T06:59:55;25.38;;;15.30;;
63434;SDS011;68814;50.872;5.306;2023-04-03T07:02:21;31.42;;;16.45;;
63434;SDS011;68814;50.872;5.306;2023-04-03T07:04:47;24.38;;;14.18;;
63434;SDS011;68814;50.872;5.306;2023-04-03T07:07:12;23.92;;;13.52;;
63434;SDS011;68814;50.872;5.306;2023-04-03T07:09:38;22.20;;;12.13;;
63434;SDS011;68814;50.872;5.306;2023-04-03T07:12:05;20.73;;;12.00;;
63434;SDS011;68814;50.872;5.306;2023-04-03T07:14:31;22.50;;;12.00;;
63434;SDS011;68814;50.872;5.306;2023-04-03T07:16:56;20.23;;;10.88;;
63434;SDS011;68814;50.872;5.306;2023-04-03T07:19:22;21.77;;;10.65;;
63434;SDS011;68814;50.872;5.306;2023-04-03T07:22:01;18.02;;;9.68;;
63434;SDS011;68814;50.872;5.306;2023-04-03T07:24:27;18.15;;;9.52;;
63434;SDS011;68814;50.872;5.306;2023-04-03T07:26:52;22.30;;;9.18;;
63434;SDS011;68814;50.872;5.306;2023-04-03T07:29:20;13.10;;;7.68;;
63434;SDS011;68814;50.872;5.306;2023-04-03T07:31:46;13.65;;;7.85;;
63434;SDS011;68814;50.872;5.306;2023-04-03T07:34:12;13.27;;;8.32;;
63434;SDS011;68814;50.872;5.306;2023-04-03T07:36:38;20.15;;;8.75;;
63434;SDS011;68814;50.872;5.306;2023-04-03T07:39:04;15.20;;;8.05;;
63434;SDS011;68814;50.872;5.306;2023-04-03T07:41:29;11.15;;;6.78;;
63434;SDS011;68814;50.872;5.306;2023-04-03T07:43:55;14.98;;;6.88;;
63434;SDS011;68814;50.872;5.306;2023-04-03T07:46:21;16.08;;;6.88;;
63434;SDS011;68814;50.872;5.306;2023-04-03T07:48:48;15.52;;;7.30;;
63434;SDS011;68814;50.872;5.306;2023-04-03T07:51:13;15.05;;;6.50;;
63434;SDS011;68814;50.872;5.306;2023-04-03T07:53:39;14.60;;;6.35;;
63434;SDS011;68814;50.872;5.306;2023-04-03T07:56:06;12.55;;;6.05;;
63434;SDS011;68814;50.872;5.306;2023-04-03T07:58:32;13.80;;;6.22;;
63434;SDS011;68814;50.872;5.306;2023-04-03T08:00:59;10.70;;;5.25;;
63434;SDS011;68814;50.872;5.306;2023-04-03T08:03:24;11.02;;;5.55;;
63434;SDS011;68814;50.872;5.306;2023-04-03T08:05:50;11.10;;;5.75;;
63434;SDS011;68814;50.872;5.306;2023-04-03T08:08:19;9.85;;;6.10;;
63434;SDS011;68814;50.872;5.306;2023-04-03T08:10:50;10.70;;;4.93;;
63434;SDS011;68814;50.872;5.306;2023-04-03T08:13:23;10.32;;;5.43;;
63434;SDS011;68814;50.872;5.306;2023-04-03T08:15:48;8.57;;;4.72;;
63434;SDS011;68814;50.872;5.306;2023-04-03T08:18:14;8.23;;;4.88;;
63434;SDS011;68814;50.872;5.306;2023-04-03T08:20:41;10.50;;;4.30;;
63434;SDS011;68814;50.872;5.306;2023-04-03T08:23:07;9.35;;;4.30;;
63434;SDS011;68814;50.872;5.306;2023-04-03T08:25:33;12.85;;;4.82;;
63434;SDS011;68814;50.872;5.306;2023-04-03T08:28:02;8.57;;;3.90;;
63434;SDS011;68814;50.872;5.306;2023-04-03T08:30:28;5.88;;;3.72;;
63434;SDS011;68814;50.872;5.306;2023-04-03T08:35:29;7.10;;;3.65;;
63434;SDS011;68814;50.872;5.306;2023-04-03T08:37:55;8.15;;;3.47;;
63434;SDS011;68814;50.872;5.306;2023-04-03T08:40:21;7.07;;;3.45;;
63434;SDS011;68814;50.872;5.306;2023-04-03T08:48:39;9.68;;;3.35;;
63434;SDS011;68814;50.872;5.306;2023-04-03T08:51:14;6.70;;;3.17;;
63434;SDS011;68814;50.872;5.306;2023-04-03T08:53:48;11.32;;;3.65;;
63434;SDS011;68814;50.872;5.306;2023-04-03T08:56:22;8.32;;;3.60;;
63434;SDS011;68814;50.872;5.306;2023-04-03T08:58:55;9.10;;;3.22;;
63434;SDS011;68814;50.872;5.306;2023-04-03T09:01:27;7.72;;;3.03;;
63434;SDS011;68814;50.872;5.306;2023-04-03T09:04:02;8.02;;;3.20;;
63434;SDS011;68814;50.872;5.306;2023-04-03T09:06:34;9.00;;;2.85;;
63434;SDS011;68814;50.872;5.306;2023-04-03T09:12:17;8.27;;;3.25;;
63434;SDS011;68814;50.872;5.306;2023-04-03T09:23:50;4.75;;;2.00;;
63434;SDS011;68814;50.872;5.306;2023-04-03T09:26:37;6.97;;;2.17;;
63434;SDS011;68814;50.872;5.306;2023-04-03T09:29:20;6.63;;;2.00;;
63434;SDS011;68814;50.872;5.306;2023-04-03T09:31:48;4.53;;;2.20;;
63434;SDS011;68814;50.872;5.306;2023-04-03T09:39:16;5.28;;;1.80;;
63434;SDS011;68814;50.872;5.306;2023-04-03T09:48:27;7.70;;;2.35;;
63434;SDS011;68814;50.872;5.306;2023-04-03T09:50:54;4.38;;;1.63;;
63434;SDS011;68814;50.872;5.306;2023-04-03T09:53:39;5.13;;;2.30;;
63434;SDS011;68814;50.872;5.306;2023-04-03T10:06:40;5.93;;;1.73;;
63434;SDS011;68814;50.872;5.306;2023-04-03T10:19:48;2.55;;;1.38;;
63434;SDS011;68814;50.872;5.306;2023-04-03T10:22:31;7.72;;;1.88;;
63434;SDS011;68814;50.872;5.306;2023-04-03T10:25:26;3.22;;;1.23;;
63434;SDS011;68814;50.872;5.306;2023-04-03T10:28:17;3.63;;;1.10;;
63434;SDS011;68814;50.872;5.306;2023-04-03T10:36:19;5.43;;;1.83;;
63434;SDS011;68814;50.872;5.306;2023-04-03T10:47:08;3.05;;;0.80;;
63434;SDS011;68814;50.872;5.306;2023-04-03T10:52:31;4.57;;;1.17;;
63434;SDS011;68814;50.872;5.306;2023-04-03T10:57:49;3.92;;;0.90;;
63434;SDS011;68814;50.872;5.306;2023-04-03T11:00:16;4.03;;;1.13;;
63434;SDS011;68814;50.872;5.306;2023-04-03T11:03:05;1.65;;;0.85;;
63434;SDS011;68814;50.872;5.306;2023-04-03T11:05:45;1.57;;;0.60;;
63434;SDS011;68814;50.872;5.306;2023-04-03T11:08:25;3.17;;;1.10;;
63434;SDS011;68814;50.872;5.306;2023-04-03T11:10:56;2.78;;;0.70;;
63434;SDS011;68814;50.872;5.306;2023-04-03T11:13:39;3.67;;;0.95;;
63434;SDS011;68814;50.872;5.306;2023-04-03T11:16:09;3.45;;;0.90;;
63434;SDS011;68814;50.872;5.306;2023-04-03T11:18:58;1.93;;;0.80;;
63434;SDS011;68814;50.872;5.306;2023-04-03T11:24:55;4.63;;;1.00;;
63434;SDS011;68814;50.872;5.306;2023-04-03T11:27:27;4.68;;;1.15;;
63434;SDS011;68814;50.872;5.306;2023-04-03T11:30:00;1.20;;;0.50;;
63434;SDS011;68814;50.872;5.306;2023-04-03T11:35:12;3.53;;;0.90;;
63434;SDS011;68814;50.872;5.306;2023-04-03T11:37:39;2.85;;;1.10;;
63434;SDS011;68814;50.872;5.306;2023-04-03T11:43:07;3.20;;;1.20;;
63434;SDS011;68814;50.872;5.306;2023-04-03T11:50:59;4.65;;;1.42;;
63434;SDS011;68814;50.872;5.306;2023-04-03T12:13:42;5.05;;;1.10;;
63434;SDS011;68814;50.872;5.306;2023-04-03T12:28:39;5.63;;;1.58;;
63434;SDS011;68814;50.872;5.306;2023-04-03T12:31:08;5.47;;;1.25;;
63434;SDS011;68814;50.872;5.306;2023-04-03T12:36:29;4.05;;;1.40;;
63434;SDS011;68814;50.872;5.306;2023-04-03T12:39:30;2.10;;;0.95;;
63434;SDS011;68814;50.872;5.306;2023-04-03T12:44:40;4.05;;;1.05;;
63434;SDS011;68814;50.872;5.306;2023-04-03T12:47:35;3.15;;;0.90;;
63434;SDS011;68814;50.872;5.306;2023-04-03T12:50:16;2.55;;;1.23;;
63434;SDS011;68814;50.872;5.306;2023-04-03T12:52:59;5.03;;;1.23;;
63434;SDS011;68814;50.872;5.306;2023-04-03T12:57:55;2.08;;;1.02;;
63434;SDS011;68814;50.872;5.306;2023-04-03T13:02:57;3.22;;;1.20;;
63434;SDS011;68814;50.872;5.306;2023-04-03T13:05:23;3.08;;;1.02;;
63434;SDS011;68814;50.872;5.306;2023-04-03T13:07:52;2.85;;;1.20;;
63434;SDS011;68814;50.872;5.306;2023-04-03T13:10:43;3.33;;;1.10;;
63434;SDS011;68814;50.872;5.306;2023-04-03T13:13:13;11.57;;;2.83;;
63434;SDS011;68814;50.872;5.306;2023-04-03T13:15:41;8.10;;;1.35;;
63434;SDS011;68814;50.872;5.306;2023-04-03T13:18:26;3.70;;;1.42;;
63434;SDS011;68814;50.872;5.306;2023-04-03T13:36:43;6.68;;;1.25;;
63434;SDS011;68814;50.872;5.306;2023-04-03T13:39:31;39.70;;;7.50;;
63434;SDS011;68814;50.872;5.306;2023-04-03T13:42:16;10.87;;;2.37;;
63434;SDS011;68814;50.872;5.306;2023-04-03T13:45:07;3.78;;;1.38;;
63434;SDS011;68814;50.872;5.306;2023-04-03T13:48:08;4.22;;;1.30;;
63434;SDS011;68814;50.872;5.306;2023-04-03T13:53:16;3.65;;;1.02;;
63434;SDS011;68814;50.872;5.306;2023-04-03T13:58:26;3.22;;;1.13;;
63434;SDS011;68814;50.872;5.306;2023-04-03T14:01:00;2.78;;;1.10;;
63434;SDS011;68814;50.872;5.306;2023-04-03T14:03:51;3.92;;;1.10;;
63434;SDS011;68814;50.872;5.306;2023-04-03T14:06:19;3.07;;;1.07;;
63434;SDS011;68814;50.872;5.306;2023-04-03T14:08:46;3.30;;;1.10;;
63434;SDS011;68814;50.872;5.306;2023-04-03T14:11:18;4.45;;;1.10;;
63434;SDS011;68814;50.872;5.306;2023-04-03T14:13:49;5.40;;;1.52;;
63434;SDS011;68814;50.872;5.306;2023-04-03T14:23:01;2.90;;;0.73;;
63434;SDS011;68814;50.872;5.306;2023-04-03T14:25:27;6.28;;;1.27;;
63434;SDS011;68814;50.872;5.306;2023-04-03T14:27:53;2.08;;;0.77;;
63434;SDS011;68814;50.872;5.306;2023-04-03T14:30:24;5.53;;;1.30;;
63434;SDS011;68814;50.872;5.306;2023-04-03T14:32:54;3.70;;;1.05;;
63434;SDS011;68814;50.872;5.306;2023-04-03T14:35:21;3.97;;;1.10;;
63434;SDS011;68814;50.872;5.306;2023-04-03T14:37:47;2.95;;;1.10;;
63434;SDS011;68814;50.872;5.306;2023-04-03T14:40:15;3.60;;;1.20;;
63434;SDS011;68814;50.872;5.306;2023-04-03T14:42:43;4.57;;;1.25;;
63434;SDS011;68814;50.872;5.306;2023-04-03T14:45:10;2.13;;;0.80;;
63434;SDS011;68814;50.872;5.306;2023-04-03T14:47:43;4.15;;;1.70;;
63434;SDS011;68814;50.872;5.306;2023-04-03T14:50:16;3.00;;;1.00;;
63434;SDS011;68814;50.872;5.306;2023-04-03T14:52:46;4.35;;;1.25;;
63434;SDS011;68814;50.872;5.306;2023-04-03T14:55:14;1.65;;;0.77;;
63434;SDS011;68814;50.872;5.306;2023-04-03T14:57:42;4.22;;;1.10;;
63434;SDS011;68814;50.872;5.306;2023-04-03T15:00:12;2.17;;;1.10;;
63434;SDS011;68814;50.872;5.306;2023-04-03T15:02:45;3.75;;;1.00;;
63434;SDS011;68814;50.872;5.306;2023-04-03T15:15:18;3.13;;;1.10;;
63434;SDS011;68814;50.872;5.306;2023-04-03T15:17:52;2.15;;;0.75;;
63434;SDS011;68814;50.872;5.306;2023-04-03T15:20:21;3.08;;;1.20;;
63434;SDS011;68814;50.872;5.306;2023-04-03T15:22:48;7.85;;;2.10;;
63434;SDS011;68814;50.872;5.306;2023-04-03T15:25:14;4.55;;;1.13;;
63434;SDS011;68814;50.872;5.306;2023-04-03T15:27:41;3.22;;;1.00;;
63434;SDS011;68814;50.872;5.306;2023-04-03T15:30:10;1.67;;;0.82;;
63434;SDS011;68814;50.872;5.306;2023-04-03T15:32:38;4.35;;;0.90;;
63434;SDS011;68814;50.872;5.306;2023-04-03T15:35:04;2.28;;;1.00;;
63434;SDS011;68814;50.872;5.306;2023-04-03T15:37:30;3.60;;;1.15;;
63434;SDS011;68814;50.872;5.306;2023-04-03T15:39:56;2.40;;;0.90;;
63434;SDS011;68814;50.872;5.306;2023-04-03T15:42:40;3.85;;;0.80;;
63434;SDS011;68814;50.872;5.306;2023-04-03T15:45:06;3.13;;;0.85;;
63434;SDS011;68814;50.872;5.306;2023-04-03T15:47:32;1.50;;;0.80;;
63434;SDS011;68814;50.872;5.306;2023-04-03T15:49:58;4.30;;;0.80;;
63434;SDS011;68814;50.872;5.306;2023-04-03T15:52:24;1.42;;;0.80;;
63434;SDS011;68814;50.872;5.306;2023-04-03T15:54:50;2.47;;;1.00;;
63434;SDS011;68814;50.872;5.306;2023-04-03T15:57:15;2.25;;;1.00;;
63434;SDS011;68814;50.872;5.306;2023-04-03T16:03:11;2.90;;;1.10;;
63434;SDS011;68814;50.872;5.306;2023-04-03T16:05:39;1.17;;;0.68;;
63434;SDS011;68814;50.872;5.306;2023-04-03T16:08:05;4.28;;;0.90;;
63434;SDS011;68814;50.872;5.306;2023-04-03T16:10:32;2.78;;;1.10;;
63434;SDS011;68814;50.872;5.306;2023-04-03T16:12:59;2.92;;;1.17;;
63434;SDS011;68814;50.872;5.306;2023-04-03T16:15:25;2.08;;;0.90;;
63434;SDS011;68814;50.872;5.306;2023-04-03T16:17:51;4.13;;;1.38;;
63434;SDS011;68814;50.872;5.306;2023-04-03T16:20:18;4.25;;;0.77;;
63434;SDS011;68814;50.872;5.306;2023-04-03T16:22:44;3.65;;;1.00;;
63434;SDS011;68814;50.872;5.306;2023-04-03T16:27:54;2.45;;;0.93;;
63434;SDS011;68814;50.872;5.306;2023-04-03T16:30:23;4.32;;;1.05;;
63434;SDS011;68814;50.872;5.306;2023-04-03T16:32:51;2.60;;;1.08;;
63434;SDS011;68814;50.872;5.306;2023-04-03T16:35:36;4.53;;;1.45;;
63434;SDS011;68814;50.872;5.306;2023-04-03T16:40:50;2.55;;;1.02;;
63434;SDS011;68814;50.872;5.306;2023-04-03T16:43:17;2.05;;;0.90;;
63434;SDS011;68814;50.872;5.306;2023-04-03T16:48:20;2.55;;;0.93;;
63434;SDS011;68814;50.872;5.306;2023-04-03T16:55:57;1.25;;;1.15;;
63434;SDS011;68814;50.872;5.306;2023-04-03T17:06:17;4.47;;;1.23;;
63434;SDS011;68814;50.872;5.306;2023-04-03T17:13:55;4.50;;;1.30;;
63434;SDS011;68814;50.872;5.306;2023-04-03T17:16:25;1.92;;;0.80;;
63434;SDS011;68814;50.872;5.306;2023-04-03T17:18:53;1.93;;;1.07;;
63434;SDS011;68814;50.872;5.306;2023-04-03T17:26:52;5.20;;;1.00;;
63434;SDS011;68814;50.872;5.306;2023-04-03T17:29:24;2.85;;;1.00;;
63434;SDS011;68814;50.872;5.306;2023-04-03T17:31:49;2.22;;;0.80;;
63434;SDS011;68814;50.872;5.306;2023-04-03T17:34:15;3.13;;;1.05;;
63434;SDS011;68814;50.872;5.306;2023-04-03T17:36:41;3.13;;;1.20;;
63434;SDS011;68814;50.872;5.306;2023-04-03T17:42:29;3.22;;;1.55;;
63434;SDS011;68814;50.872;5.306;2023-04-03T17:52:43;3.60;;;1.17;;
63434;SDS011;68814;50.872;5.306;2023-04-03T17:55:08;3.60;;;0.98;;
63434;SDS011;68814;50.872;5.306;2023-04-03T17:57:34;7.45;;;1.45;;
63434;SDS011;68814;50.872;5.306;2023-04-03T18:00:00;6.03;;;1.10;;
63434;SDS011;68814;50.872;5.306;2023-04-03T18:02:26;1.75;;;0.90;;
63434;SDS011;68814;50.872;5.306;2023-04-03T18:04:52;3.35;;;1.00;;
63434;SDS011;68814;50.872;5.306;2023-04-03T18:07:18;3.30;;;1.50;;
63434;SDS011;68814;50.872;5.306;2023-04-03T18:09:45;3.53;;;1.20;;
63434;SDS011;68814;50.872;5.306;2023-04-03T18:12:16;3.63;;;1.25;;
63434;SDS011;68814;50.872;5.306;2023-04-03T18:14:45;2.90;;;1.20;;
63434;SDS011;68814;50.872;5.306;2023-04-03T18:17:11;3.95;;;0.98;;
63434;SDS011;68814;50.872;5.306;2023-04-03T18:19:37;3.53;;;1.10;;
63434;SDS011;68814;50.872;5.306;2023-04-03T18:22:04;5.30;;;1.00;;
63434;SDS011;68814;50.872;5.306;2023-04-03T18:24:33;2.42;;;0.85;;
63434;SDS011;68814;50.872;5.306;2023-04-03T18:27:06;3.47;;;1.10;;
63434;SDS011;68814;50.872;5.306;2023-04-03T18:29:36;3.80;;;1.10;;
63434;SDS011;68814;50.872;5.306;2023-04-03T18:32:03;3.50;;;1.20;;
63434;SDS011;68814;50.872;5.306;2023-04-03T18:34:31;6.70;;;1.20;;
63434;SDS011;68814;50.872;5.306;2023-04-03T18:36:57;4.10;;;1.05;;
63434;SDS011;68814;50.872;5.306;2023-04-03T18:39:24;3.25;;;1.30;;
63434;SDS011;68814;50.872;5.306;2023-04-03T18:41:49;4.25;;;1.10;;
63434;SDS011;68814;50.872;5.306;2023-04-03T18:44:16;5.03;;;1.20;;
63434;SDS011;68814;50.872;5.306;2023-04-03T18:46:44;3.78;;;1.17;;
63434;SDS011;68814;50.872;5.306;2023-04-03T18:52:32;5.22;;;1.35;;
63434;SDS011;68814;50.872;5.306;2023-04-03T18:54:58;4.57;;;1.08;;
63434;SDS011;68814;50.872;5.306;2023-04-03T18:57:23;6.50;;;1.48;;
63434;SDS011;68814;50.872;5.306;2023-04-03T18:59:52;3.78;;;1.20;;
63434;SDS011;68814;50.872;5.306;2023-04-03T19:09:07;5.78;;;1.50;;
63434;SDS011;68814;50.872;5.306;2023-04-03T19:11:33;2.45;;;1.20;;
63434;SDS011;68814;50.872;5.306;2023-04-03T19:13:59;4.80;;;1.70;;
63434;SDS011;68814;50.872;5.306;2023-04-03T19:16:25;5.40;;;1.60;;
63434;SDS011;68814;50.872;5.306;2023-04-03T19:18:50;7.10;;;1.65;;
63434;SDS011;68814;50.872;5.306;2023-04-03T19:21:16;4.15;;;1.88;;
63434;SDS011;68814;50.872;5.306;2023-04-03T19:23:42;6.25;;;1.83;;
63434;SDS011;68814;50.872;5.306;2023-04-03T19:26:09;5.25;;;1.63;;
63434;SDS011;68814;50.872;5.306;2023-04-03T19:28:36;3.67;;;1.52;;
63434;SDS011;68814;50.872;5.306;2023-04-03T19:44:29;7.40;;;2.22;;
63434;SDS011;68814;50.872;5.306;2023-04-03T19:46:57;2.95;;;1.90;;
63434;SDS011;68814;50.872;5.306;2023-04-03T19:49:23;4.30;;;1.90;;
63434;SDS011;68814;50.872;5.306;2023-04-03T19:51:49;3.92;;;1.50;;
63434;SDS011;68814;50.872;5.306;2023-04-03T19:54:15;5.93;;;2.10;;
63434;SDS011;68814;50.872;5.306;2023-04-03T19:56:41;8.70;;;2.00;;
63434;SDS011;68814;50.872;5.306;2023-04-03T19:59:06;5.88;;;2.65;;
63434;SDS011;68814;50.872;5.306;2023-04-03T20:01:32;6.65;;;2.13;;
63434;SDS011;68814;50.872;5.306;2023-04-03T20:14:05;5.10;;;1.75;;
63434;SDS011;68814;50.872;5.306;2023-04-03T20:16:31;5.93;;;2.00;;
63434;SDS011;68814;50.872;5.306;2023-04-03T20:18:57;4.72;;;1.75;;
63434;SDS011;68814;50.872;5.306;2023-04-03T20:21:27;3.63;;;1.48;;
63434;SDS011;68814;50.872;5.306;2023-04-03T20:23:53;4.40;;;1.52;;
63434;SDS011;68814;50.872;5.306;2023-04-03T20:26:20;4.78;;;1.27;;
63434;SDS011;68814;50.872;5.306;2023-04-03T20:28:58;6.85;;;1.63;;
63434;SDS011;68814;50.872;5.306;2023-04-03T20:31:25;3.85;;;1.27;;
63434;SDS011;68814;50.872;5.306;2023-04-03T20:33:52;3.58;;;1.35;;
63434;SDS011;68814;50.872;5.306;2023-04-03T20:36:19;5.85;;;1.23;;
63434;SDS011;68814;50.872;5.306;2023-04-03T20:38:45;4.38;;;1.40;;
63434;SDS011;68814;50.872;5.306;2023-04-03T20:41:12;3.80;;;1.33;;
63434;SDS011;68814;50.872;5.306;2023-04-03T20:43:39;3.67;;;1.17;;
63434;SDS011;68814;50.872;5.306;2023-04-03T20:49:34;3.85;;;1.40;;
63434;SDS011;68814;50.872;5.306;2023-04-03T20:51:59;3.85;;;1.23;;
63434;SDS011;68814;50.872;5.306;2023-04-03T20:54:25;4.38;;;1.58;;
63434;SDS011;68814;50.872;5.306;2023-04-03T20:56:51;5.40;;;1.50;;
63434;SDS011;68814;50.872;5.306;2023-04-03T20:59:16;2.78;;;1.17;;
63434;SDS011;68814;50.872;5.306;2023-04-03T21:01:42;4.40;;;1.65;;
63434;SDS011;68814;50.872;5.306;2023-04-03T21:04:20;3.58;;;1.25;;
63434;SDS011;68814;50.872;5.306;2023-04-03T21:19:31;4.03;;;1.60;;
63434;SDS011;68814;50.872;5.306;2023-04-03T21:21:58;5.35;;;1.92;;
63434;SDS011;68814;50.872;5.306;2023-04-03T21:24:24;4.90;;;2.03;;
63434;SDS011;68814;50.872;5.306;2023-04-03T21:26:50;2.58;;;1.40;;
63434;SDS011;68814;50.872;5.306;2023-04-03T21:50:21;3.30;;;1.50;;